createdAt,value
2018-04-01T00:01:03.285Z,5.78
2018-04-01T00:02:03.840Z,5.70
2018-04-01T00:03:04.396Z,5.81
2018-04-01T00:04:04.934Z,5.81
2018-04-01T00:05:05.475Z,5.78
2018-04-01T00:06:06.020Z,5.81
2018-04-01T00:07:06.568Z,5.87
2018-04-01T00:08:07.112Z,5.86
2018-04-01T00:09:07.658Z,5.84
2018-04-01T00:10:08.201Z,5.86
2018-04-01T00:11:08.745Z,5.83
2018-04-01T00:12:09.284Z,5.78
2018-04-01T00:13:09.832Z,5.84
2018-04-01T00:14:10.377Z,5.83
2018-04-01T00:15:10.920Z,5.72
2018-04-01T00:16:11.463Z,5.75
2018-04-01T00:17:12.005Z,5.81
2018-04-01T00:18:12.547Z,5.78
2018-04-01T00:19:13.096Z,5.75
2018-04-01T00:20:13.632Z,5.75
2018-04-01T00:21:14.177Z,5.70
2018-04-01T00:22:14.713Z,5.69
2018-04-01T00:23:15.260Z,5.66
2018-04-01T00:24:15.814Z,5.66
2018-04-01T00:25:16.345Z,5.68
2018-04-01T00:26:16.891Z,5.63
2018-04-01T00:27:17.432Z,5.58
2018-04-01T00:28:17.984Z,5.63
2018-04-01T00:29:18.522Z,5.65
2018-04-01T00:30:19.067Z,5.65
2018-04-01T00:31:19.607Z,5.54
2018-04-01T00:32:20.152Z,5.51
2018-04-01T00:33:20.689Z,5.47
2018-04-01T00:34:21.228Z,5.42
2018-04-01T00:35:21.765Z,5.40
2018-04-01T00:36:22.313Z,5.45
2018-04-01T00:37:22.853Z,5.33
2018-04-01T00:38:23.391Z,5.34
2018-04-01T00:39:23.930Z,5.39
2018-04-01T00:40:24.487Z,5.26
2018-04-01T00:41:25.017Z,5.39
2018-04-01T00:42:25.554Z,5.36
2018-04-01T00:43:26.099Z,5.36
2018-04-01T00:44:26.637Z,5.33
2018-04-01T00:45:27.177Z,5.32
2018-04-01T00:46:27.719Z,5.30
2018-04-01T00:47:28.258Z,5.37
2018-04-01T00:48:28.798Z,5.37
2018-04-01T00:49:29.340Z,5.36
2018-04-01T00:50:29.888Z,5.36
2018-04-01T00:51:30.430Z,5.32
2018-04-01T00:52:30.975Z,5.40
2018-04-01T00:53:31.519Z,5.37
2018-04-01T00:54:32.070Z,5.30
2018-04-01T00:55:32.609Z,5.40
2018-04-01T00:56:33.155Z,5.34
2018-04-01T00:57:33.700Z,5.42
2018-04-01T00:58:34.244Z,5.44
2018-04-01T00:59:34.785Z,5.47
2018-04-01T01:00:35.324Z,5.44
2018-04-01T01:01:35.872Z,5.45
2018-04-01T01:02:36.417Z,5.45
2018-04-01T01:03:36.987Z,5.51
2018-04-01T01:04:37.502Z,5.51
2018-04-01T01:05:38.048Z,5.44
2018-04-01T01:06:38.590Z,5.54
2018-04-01T01:07:39.124Z,5.54
2018-04-01T01:08:39.663Z,5.50
2018-04-01T01:09:40.210Z,5.45
2018-04-01T01:10:40.750Z,5.45
2018-04-01T01:11:41.289Z,5.44
2018-04-01T01:12:41.829Z,5.51
2018-04-01T01:13:42.373Z,5.47
2018-04-01T01:14:42.920Z,5.55
2018-04-01T01:15:43.462Z,5.50
2018-04-01T01:16:44.004Z,5.52
2018-04-01T01:17:44.551Z,5.52
2018-04-01T01:18:45.088Z,5.63
2018-04-01T01:19:45.625Z,5.60
2018-04-01T01:20:46.170Z,5.63
2018-04-01T01:21:46.707Z,5.63
2018-04-01T01:22:47.243Z,5.60
2018-04-01T01:23:47.788Z,5.63
2018-04-01T01:24:48.331Z,5.60
2018-04-01T01:25:48.874Z,5.61
2018-04-01T01:26:49.412Z,5.58
2018-04-01T01:27:49.953Z,5.66
2018-04-01T01:28:50.495Z,5.60
2018-04-01T01:29:51.041Z,5.63
2018-04-01T01:30:51.637Z,5.60
2018-04-01T01:31:52.122Z,5.58
2018-04-01T01:32:52.666Z,5.55
2018-04-01T01:33:53.209Z,5.60
2018-04-01T01:34:53.751Z,5.61
2018-04-01T01:35:54.290Z,5.60
2018-04-01T01:36:54.839Z,5.68
2018-04-01T01:37:55.370Z,5.66
2018-04-01T01:38:55.908Z,5.69
2018-04-01T01:39:56.453Z,5.66
2018-04-01T01:40:56.993Z,5.66
2018-04-01T01:41:57.531Z,5.58
2018-04-01T01:42:58.066Z,5.57
2018-04-01T01:43:58.613Z,5.66
2018-04-01T01:44:59.155Z,5.70
2018-04-01T01:45:59.697Z,5.70
2018-04-01T01:47:00.242Z,5.68
2018-04-01T01:48:00.787Z,5.65
2018-04-01T01:49:01.331Z,5.76
2018-04-01T01:50:01.876Z,5.83
2018-04-01T01:51:02.418Z,5.84
2018-04-01T01:52:02.955Z,5.79
2018-04-01T01:53:03.495Z,5.79
2018-04-01T01:54:04.037Z,5.83
2018-04-01T01:55:04.576Z,5.87
2018-04-01T01:56:05.120Z,5.99
2018-04-01T01:57:05.660Z,5.97
2018-04-01T01:58:06.200Z,5.90
2018-04-01T01:59:06.737Z,6.01
2018-04-01T02:00:07.274Z,5.97
2018-04-01T02:01:07.822Z,6.09
2018-04-01T02:02:08.357Z,6.09
2018-04-01T02:03:08.901Z,6.02
2018-04-01T02:04:09.449Z,6.11
2018-04-01T02:05:09.991Z,6.12
2018-04-01T02:06:10.526Z,6.27
2018-04-01T02:07:11.063Z,6.16
2018-04-01T02:08:11.610Z,6.12
2018-04-01T02:09:12.156Z,6.09
2018-04-01T02:10:12.696Z,6.16
2018-04-01T02:11:13.242Z,6.30
2018-04-01T02:12:13.785Z,6.38
2018-04-01T02:13:14.333Z,6.40
2018-04-01T02:14:14.882Z,6.42
2018-04-01T02:15:15.422Z,6.49
2018-04-01T02:16:15.967Z,6.42
2018-04-01T02:17:16.510Z,6.45
2018-04-01T02:18:17.046Z,6.48
2018-04-01T02:19:17.584Z,6.45
2018-04-01T02:20:18.121Z,6.52
2018-04-01T02:21:18.661Z,6.43
2018-04-01T02:22:19.202Z,6.42
2018-04-01T02:23:19.747Z,6.58
2018-04-01T02:24:20.289Z,6.60
2018-04-01T02:25:20.837Z,6.53
2018-04-01T02:26:21.375Z,6.66
2018-04-01T02:27:21.919Z,6.66
2018-04-01T02:28:22.459Z,6.76
2018-04-01T02:29:22.995Z,6.60
2018-04-01T02:30:23.538Z,6.71
2018-04-01T02:31:24.106Z,6.71
2018-04-01T02:32:24.620Z,6.70
2018-04-01T02:33:25.158Z,6.64
2018-04-01T02:34:25.699Z,6.68
2018-04-01T02:35:26.234Z,6.70
2018-04-01T02:36:26.782Z,6.70
2018-04-01T02:37:27.324Z,6.78
2018-04-01T02:38:27.866Z,6.64
2018-04-01T02:39:28.410Z,6.73
2018-04-01T02:40:28.962Z,6.64
2018-04-01T02:41:29.499Z,6.67
2018-04-01T02:42:30.038Z,6.66
2018-04-01T02:43:30.588Z,6.68
2018-04-01T02:44:31.136Z,6.61
2018-04-01T02:45:31.682Z,6.64
2018-04-01T02:46:32.221Z,6.66
2018-04-01T02:47:32.756Z,6.68
2018-04-01T02:48:33.306Z,6.61
2018-04-01T02:49:33.847Z,6.57
2018-04-01T02:50:34.381Z,6.58
2018-04-01T02:51:34.923Z,6.60
2018-04-01T02:52:35.467Z,6.53
2018-04-01T02:53:36.016Z,6.48
2018-04-01T02:54:36.552Z,6.40
2018-04-01T02:55:37.093Z,6.53
2018-04-01T02:56:37.636Z,6.46
2018-04-01T02:57:38.182Z,6.46
2018-04-01T02:58:38.722Z,6.45
2018-04-01T02:59:39.260Z,6.45
2018-04-01T03:00:39.797Z,6.46
2018-04-01T03:01:40.346Z,6.40
2018-04-01T03:02:40.887Z,6.45
2018-04-01T03:03:41.426Z,6.39
2018-04-01T03:04:41.972Z,6.40
2018-04-01T03:05:42.519Z,6.45
2018-04-01T03:06:43.058Z,6.42
2018-04-01T03:07:43.599Z,6.39
2018-04-01T03:08:44.135Z,6.34
2018-04-01T03:09:44.680Z,6.38
2018-04-01T03:10:45.214Z,6.35
2018-04-01T03:11:45.753Z,6.39
2018-04-01T03:12:46.293Z,6.38
2018-04-01T03:13:46.832Z,6.39
2018-04-01T03:14:47.388Z,6.34
2018-04-01T03:15:47.919Z,6.28
2018-04-01T03:16:48.471Z,6.27
2018-04-01T03:17:49.006Z,6.38
2018-04-01T03:18:49.555Z,6.31
2018-04-01T03:19:50.101Z,6.34
2018-04-01T03:20:50.641Z,6.32
2018-04-01T03:21:51.179Z,6.31
2018-04-01T03:22:51.723Z,6.28
2018-04-01T03:23:52.264Z,6.30
2018-04-01T03:24:52.804Z,6.31
2018-04-01T03:25:53.347Z,6.20
2018-04-01T03:26:53.888Z,6.19
2018-04-01T03:27:54.427Z,6.28
2018-04-01T03:28:54.967Z,6.24
2018-04-01T03:29:55.514Z,6.15
2018-04-01T03:30:56.056Z,6.15
2018-04-01T03:31:56.598Z,6.24
2018-04-01T03:32:57.140Z,6.16
2018-04-01T03:33:57.678Z,6.16
2018-04-01T03:34:58.234Z,6.20
2018-04-01T03:35:58.757Z,6.19
2018-04-01T03:36:59.302Z,6.20
2018-04-01T03:37:59.850Z,6.11
2018-04-01T03:39:00.385Z,6.13
2018-04-01T03:40:00.929Z,6.09
2018-04-01T03:41:01.473Z,6.11
2018-04-01T03:42:02.019Z,6.11
2018-04-01T03:43:02.565Z,6.08
2018-04-01T03:44:03.103Z,6.11
2018-04-01T03:45:03.641Z,6.06
2018-04-01T03:46:04.187Z,6.13
2018-04-01T03:47:04.724Z,6.09
2018-04-01T03:48:05.267Z,6.12
2018-04-01T03:49:05.813Z,6.09
2018-04-01T03:50:06.353Z,6.05
2018-04-01T03:51:06.898Z,6.12
2018-04-01T03:52:07.437Z,6.05
2018-04-01T03:53:07.981Z,6.12
2018-04-01T03:54:08.526Z,6.06
2018-04-01T03:55:09.070Z,6.13
2018-04-01T03:56:09.614Z,6.12
2018-04-01T03:57:10.152Z,6.11
2018-04-01T03:58:10.691Z,6.12
2018-04-01T03:59:11.228Z,6.12
2018-04-01T04:00:11.776Z,6.12
2018-04-01T04:01:12.314Z,6.12
2018-04-01T04:02:12.854Z,6.13
2018-04-01T04:03:13.403Z,6.09
2018-04-01T04:04:13.938Z,6.16
2018-04-01T04:05:14.480Z,6.15
2018-04-01T04:06:15.018Z,6.11
2018-04-01T04:07:15.561Z,6.12
2018-04-01T04:08:16.106Z,6.12
2018-04-01T04:09:16.646Z,6.11
2018-04-01T04:10:17.184Z,6.15
2018-04-01T04:11:17.721Z,6.08
2018-04-01T04:12:18.270Z,6.15
2018-04-01T04:13:18.805Z,6.11
2018-04-01T04:14:19.352Z,6.19
2018-04-01T04:15:19.892Z,6.11
2018-04-01T04:16:20.431Z,6.15
2018-04-01T04:17:20.972Z,6.12
2018-04-01T04:18:21.517Z,6.06
2018-04-01T04:19:22.061Z,6.12
2018-04-01T04:20:22.600Z,6.09
2018-04-01T04:21:23.147Z,6.19
2018-04-01T04:22:23.685Z,6.13
2018-04-01T04:23:24.236Z,6.25
2018-04-01T04:24:24.775Z,6.24
2018-04-01T04:25:25.311Z,6.24
2018-04-01T04:26:25.852Z,6.15
2018-04-01T04:27:26.390Z,6.32
2018-04-01T04:28:26.933Z,6.32
2018-04-01T04:29:27.470Z,6.24
2018-04-01T04:30:28.012Z,6.25
2018-04-01T04:31:28.557Z,6.24
2018-04-01T04:32:29.098Z,6.31
2018-04-01T04:33:29.639Z,6.28
2018-04-01T04:34:30.187Z,6.31
2018-04-01T04:35:30.732Z,6.34
2018-04-01T04:36:31.271Z,6.35
2018-04-01T04:37:31.804Z,6.28
2018-04-01T04:38:32.344Z,6.35
2018-04-01T04:39:32.883Z,6.27
2018-04-01T04:40:33.426Z,6.32
2018-04-01T04:41:33.962Z,6.28
2018-04-01T04:42:34.506Z,6.32
2018-04-01T04:43:35.052Z,6.31
2018-04-01T04:44:35.593Z,6.39
2018-04-01T04:45:36.132Z,6.35
2018-04-01T04:46:36.680Z,6.42
2018-04-01T04:47:37.223Z,6.34
2018-04-01T04:48:37.769Z,6.40
2018-04-01T04:49:38.314Z,6.43
2018-04-01T04:50:38.854Z,6.40
2018-04-01T04:51:39.401Z,6.40
2018-04-01T04:52:39.947Z,6.43
2018-04-01T04:53:40.489Z,6.38
2018-04-01T04:54:41.032Z,6.46
2018-04-01T04:55:41.577Z,6.43
2018-04-01T04:56:42.124Z,6.39
2018-04-01T04:57:42.669Z,6.42
2018-04-01T04:58:43.215Z,6.43
2018-04-01T04:59:43.759Z,6.42
2018-04-01T05:00:44.302Z,6.43
2018-04-01T05:01:44.844Z,6.40
2018-04-01T05:02:45.383Z,6.42
2018-04-01T05:03:45.935Z,6.45
2018-04-01T05:04:46.470Z,6.40
2018-04-01T05:05:47.016Z,6.45
2018-04-01T05:06:47.558Z,6.52
2018-04-01T05:07:48.097Z,6.46
2018-04-01T05:08:48.640Z,6.43
2018-04-01T05:09:49.192Z,6.48
2018-04-01T05:10:49.736Z,6.38
2018-04-01T05:11:50.285Z,6.45
2018-04-01T05:12:50.823Z,6.45
2018-04-01T05:13:51.366Z,6.42
2018-04-01T05:14:51.915Z,6.46
2018-04-01T05:15:52.454Z,6.50
2018-04-01T05:16:52.994Z,6.42
2018-04-01T05:17:53.541Z,6.43
2018-04-01T05:18:54.131Z,6.42
2018-04-01T05:19:54.630Z,6.50
2018-04-01T05:20:55.173Z,6.40
2018-04-01T05:21:55.717Z,6.42
2018-04-01T05:22:56.265Z,6.52
2018-04-01T05:23:56.801Z,6.48
2018-04-01T05:24:57.354Z,6.50
2018-04-01T05:25:57.901Z,6.53
2018-04-01T05:26:58.446Z,6.53
2018-04-01T05:27:58.991Z,6.46
2018-04-01T05:28:59.530Z,6.53
2018-04-01T05:30:00.069Z,6.55
2018-04-01T05:31:00.614Z,6.50
2018-04-01T05:32:01.154Z,6.58
2018-04-01T05:33:01.708Z,6.53
2018-04-01T05:34:02.247Z,6.53
2018-04-01T05:35:02.799Z,6.50
2018-04-01T05:36:03.339Z,6.57
2018-04-01T05:37:03.888Z,6.58
2018-04-01T05:38:04.429Z,6.53
2018-04-01T05:39:04.975Z,6.53
2018-04-01T05:40:05.522Z,6.58
2018-04-01T05:41:06.076Z,6.67
2018-04-01T05:42:06.615Z,6.57
2018-04-01T05:43:07.163Z,6.55
2018-04-01T05:44:07.743Z,6.61
2018-04-01T05:45:08.259Z,6.64
2018-04-01T05:46:08.804Z,6.61
2018-04-01T05:47:09.358Z,6.64
2018-04-01T05:48:09.900Z,6.67
2018-04-01T05:49:10.443Z,6.66
2018-04-01T05:50:10.987Z,6.64
2018-04-01T05:51:11.536Z,6.63
2018-04-01T05:52:12.076Z,6.64
2018-04-01T05:53:12.619Z,6.66
2018-04-01T05:54:13.162Z,6.48
2018-04-01T05:55:13.709Z,6.50
2018-04-01T05:56:14.247Z,6.46
2018-04-01T05:57:14.789Z,6.39
2018-04-01T05:58:15.341Z,6.32
2018-04-01T05:59:15.888Z,6.24
2018-04-01T06:00:16.433Z,6.20
2018-04-01T06:01:16.983Z,6.20
2018-04-01T06:02:17.533Z,6.22
2018-04-01T06:03:18.073Z,6.09
2018-04-01T06:04:18.615Z,6.16
2018-04-01T06:05:19.160Z,6.16
2018-04-01T06:06:19.699Z,6.15
2018-04-01T06:07:20.243Z,6.13
2018-04-01T06:08:20.786Z,6.19
2018-04-01T06:09:21.336Z,6.11
2018-04-01T06:10:21.889Z,6.01
2018-04-01T06:11:22.422Z,6.01
2018-04-01T06:12:22.966Z,5.90
2018-04-01T06:13:23.506Z,5.88
2018-04-01T06:14:24.052Z,5.91
2018-04-01T06:15:24.595Z,5.87
2018-04-01T06:16:25.147Z,5.91
2018-04-01T06:17:25.691Z,5.87
2018-04-01T06:18:26.232Z,5.78
2018-04-01T06:19:26.774Z,5.72
2018-04-01T06:20:27.321Z,5.75
2018-04-01T06:21:27.863Z,5.70
2018-04-01T06:22:28.412Z,5.68
2018-04-01T06:23:28.963Z,5.69
2018-04-01T06:24:29.505Z,5.69
2018-04-01T06:25:30.050Z,5.66
2018-04-01T06:26:30.588Z,5.65
2018-04-01T06:27:31.129Z,5.70
2018-04-01T06:28:31.669Z,5.68
2018-04-01T06:29:32.222Z,5.75
2018-04-01T06:30:32.758Z,5.63
2018-04-01T06:31:33.305Z,5.69
2018-04-01T06:32:33.846Z,5.68
2018-04-01T06:33:34.389Z,5.70
2018-04-01T06:34:34.936Z,5.73
2018-04-01T06:35:35.483Z,5.66
2018-04-01T06:36:36.032Z,5.66
2018-04-01T06:37:36.583Z,5.72
2018-04-01T06:38:37.131Z,5.75
2018-04-01T06:39:37.677Z,5.75
2018-04-01T06:40:38.227Z,5.86
2018-04-01T06:41:38.767Z,5.81
2018-04-01T06:42:39.318Z,5.88
2018-04-01T06:43:39.867Z,5.86
2018-04-01T06:44:40.419Z,5.86
2018-04-01T06:45:40.960Z,5.93
2018-04-01T06:46:41.523Z,5.91
2018-04-01T06:47:42.052Z,5.88
2018-04-01T06:48:42.597Z,5.94
2018-04-01T06:49:43.145Z,5.97
2018-04-01T06:50:43.696Z,6.08
2018-04-01T06:51:44.232Z,5.99
2018-04-01T06:52:44.776Z,6.12
2018-04-01T06:53:45.321Z,6.13
2018-04-01T06:54:45.865Z,6.08
2018-04-01T06:55:46.413Z,6.04
2018-04-01T06:56:46.964Z,6.09
2018-04-01T06:57:47.513Z,6.08
2018-04-01T06:58:48.058Z,6.16
2018-04-01T06:59:48.598Z,6.09
2018-04-01T07:00:49.166Z,6.15
2018-04-01T07:01:49.692Z,6.13
2018-04-01T07:02:50.243Z,6.12
2018-04-01T07:03:50.793Z,6.20
2018-04-01T07:04:51.334Z,6.13
2018-04-01T07:05:51.878Z,6.22
2018-04-01T07:06:52.424Z,6.27
2018-04-01T07:07:52.973Z,6.25
2018-04-01T07:08:53.522Z,6.24
2018-04-01T07:09:54.067Z,6.28
2018-04-01T07:10:54.620Z,6.27
2018-04-01T07:11:55.170Z,6.32
2018-04-01T07:12:55.719Z,6.35
2018-04-01T07:13:56.269Z,6.31
2018-04-01T07:14:56.816Z,6.39
2018-04-01T07:15:57.361Z,6.39
2018-04-01T07:16:57.909Z,6.43
2018-04-01T07:17:58.453Z,6.42
2018-04-01T07:18:59.000Z,6.43
2018-04-01T07:19:59.548Z,6.42
2018-04-01T07:21:00.111Z,6.61
2018-04-01T07:22:00.648Z,6.52
2018-04-01T07:23:01.196Z,6.50
2018-04-01T07:24:01.740Z,6.60
2018-04-01T07:25:02.293Z,6.63
2018-04-01T07:26:02.840Z,6.66
2018-04-01T07:27:03.391Z,6.55
2018-04-01T07:28:03.944Z,6.63
2018-04-01T07:29:04.512Z,6.66
2018-04-01T07:30:05.048Z,6.64
2018-04-01T07:31:05.598Z,6.64
2018-04-01T07:32:06.149Z,6.71
2018-04-01T07:33:06.699Z,6.67
2018-04-01T07:34:07.250Z,6.70
2018-04-01T07:35:07.803Z,6.81
2018-04-01T07:36:08.352Z,6.73
2018-04-01T07:37:08.898Z,6.81
2018-04-01T07:38:09.451Z,6.84
2018-04-01T07:39:10.004Z,6.85
2018-04-01T07:40:10.551Z,6.86
2018-04-01T07:41:11.097Z,6.84
2018-04-01T07:42:11.655Z,6.94
2018-04-01T07:43:12.203Z,6.89
2018-04-01T07:44:12.751Z,6.88
2018-04-01T07:45:13.303Z,7.00
2018-04-01T07:46:13.852Z,7.06
2018-04-01T07:47:14.401Z,7.00
2018-04-01T07:48:14.952Z,6.94
2018-04-01T07:49:15.501Z,7.03
2018-04-01T07:50:16.052Z,7.07
2018-04-01T07:51:16.608Z,7.09
2018-04-01T07:52:17.152Z,7.06
2018-04-01T07:53:17.701Z,7.06
2018-04-01T07:54:18.252Z,7.02
2018-04-01T07:55:18.802Z,7.03
2018-04-01T07:56:19.355Z,7.02
2018-04-01T07:57:19.900Z,7.00
2018-04-01T07:58:20.451Z,7.00
2018-04-01T07:59:21.001Z,7.04
2018-04-01T08:00:21.554Z,7.12
2018-04-01T08:01:22.103Z,7.17
2018-04-01T08:02:22.647Z,7.17
2018-04-01T08:03:23.197Z,7.15
2018-04-01T08:04:23.750Z,7.25
2018-04-01T08:05:24.304Z,7.22
2018-04-01T08:06:24.850Z,7.22
2018-04-01T08:07:25.402Z,7.21
2018-04-01T08:08:25.954Z,7.19
2018-04-01T08:09:26.505Z,7.15
2018-04-01T08:10:27.049Z,7.18
2018-04-01T08:11:27.603Z,7.17
2018-04-01T08:12:28.152Z,7.14
2018-04-01T08:13:28.710Z,7.17
2018-04-01T08:14:29.255Z,7.27
2018-04-01T08:15:29.804Z,7.21
2018-04-01T08:16:30.348Z,7.29
2018-04-01T08:17:30.894Z,7.37
2018-04-01T08:18:31.440Z,7.45
2018-04-01T08:19:31.993Z,7.53
2018-04-01T08:20:32.546Z,7.66
2018-04-01T08:21:33.100Z,7.74
2018-04-01T08:22:33.643Z,7.80
2018-04-01T08:23:34.196Z,7.83
2018-04-01T08:24:34.746Z,8.04
2018-04-01T08:25:35.300Z,8.01
2018-04-01T08:26:35.859Z,7.95
2018-04-01T08:27:36.405Z,8.04
2018-04-01T08:28:36.991Z,8.06
2018-04-01T08:29:37.510Z,7.99
2018-04-01T08:30:38.061Z,8.06
2018-04-01T08:31:38.612Z,8.09
2018-04-01T08:32:39.161Z,8.17
2018-04-01T08:33:39.717Z,8.22
2018-04-01T08:34:40.274Z,8.17
2018-04-01T08:35:40.823Z,8.13
2018-04-01T08:36:41.368Z,8.31
2018-04-01T08:37:41.922Z,8.27
2018-04-01T08:38:42.477Z,8.25
2018-04-01T08:39:43.025Z,8.23
2018-04-01T08:40:43.574Z,8.25
2018-04-01T08:41:44.128Z,8.25
2018-04-01T08:42:44.681Z,8.17
2018-04-01T08:43:45.229Z,8.17
2018-04-01T08:44:45.786Z,8.22
2018-04-01T08:45:46.342Z,8.17
2018-04-01T08:46:46.885Z,8.13
2018-04-01T08:47:47.441Z,8.01
2018-04-01T08:48:47.991Z,8.01
2018-04-01T08:49:48.547Z,8.10
2018-04-01T08:50:49.095Z,8.04
2018-04-01T08:51:49.647Z,8.12
2018-04-01T08:52:50.190Z,8.22
2018-04-01T08:53:50.746Z,8.10
2018-04-01T08:54:51.296Z,8.10
2018-04-01T08:55:51.849Z,8.17
2018-04-01T08:56:52.399Z,8.15
2018-04-01T08:57:52.951Z,8.07
2018-04-01T08:58:53.508Z,8.10
2018-04-01T08:59:54.059Z,8.09
2018-04-01T09:00:54.613Z,8.13
2018-04-01T09:01:55.167Z,8.06
2018-04-01T09:02:55.759Z,8.16
2018-04-01T09:03:56.327Z,8.16
2018-04-01T09:04:56.963Z,8.20
2018-04-01T09:05:57.475Z,8.07
2018-04-01T09:06:58.028Z,8.17
2018-04-01T09:07:58.599Z,8.13
2018-04-01T09:08:59.133Z,8.30
2018-04-01T09:09:59.681Z,8.25
2018-04-01T09:11:00.229Z,8.25
2018-04-01T09:12:00.789Z,8.35
2018-04-01T09:13:01.329Z,8.40
2018-04-01T09:14:01.885Z,8.40
2018-04-01T09:15:02.429Z,8.41
2018-04-01T09:16:02.981Z,8.45
2018-04-01T09:17:03.533Z,8.45
2018-04-01T09:18:04.090Z,8.55
2018-04-01T09:19:04.643Z,8.53
2018-04-01T09:20:05.193Z,8.38
2018-04-01T09:21:05.743Z,8.28
2018-04-01T09:22:06.298Z,8.38
2018-04-01T09:23:06.854Z,8.30
2018-04-01T09:24:07.404Z,8.37
2018-04-01T09:25:07.960Z,8.30
2018-04-01T09:26:08.511Z,8.23
2018-04-01T09:27:09.059Z,8.40
2018-04-01T09:28:09.628Z,8.45
2018-04-01T09:29:10.151Z,8.46
2018-04-01T09:30:10.704Z,8.37
2018-04-01T09:31:11.251Z,8.40
2018-04-01T09:32:11.808Z,8.49
2018-04-01T09:33:12.354Z,8.37
2018-04-01T09:34:12.904Z,8.46
2018-04-01T09:35:13.456Z,8.53
2018-04-01T09:36:14.011Z,8.30
2018-04-01T09:37:14.564Z,8.31
2018-04-01T09:38:15.112Z,8.34
2018-04-01T09:39:15.669Z,8.28
2018-04-01T09:40:16.218Z,8.22
2018-04-01T09:41:16.768Z,8.28
2018-04-01T09:42:17.318Z,8.27
2018-04-01T09:43:17.876Z,8.16
2018-04-01T09:44:18.418Z,8.09
2018-04-01T09:45:18.991Z,8.30
2018-04-01T09:46:19.538Z,8.16
2018-04-01T09:47:20.089Z,8.09
2018-04-01T09:48:20.645Z,8.16
2018-04-01T09:49:21.193Z,8.01
2018-04-01T09:50:21.748Z,8.07
2018-04-01T09:51:22.293Z,8.02
2018-04-01T09:52:22.839Z,8.06
2018-04-01T09:53:23.390Z,7.95
2018-04-01T09:54:23.938Z,8.09
2018-04-01T09:55:24.489Z,8.12
2018-04-01T09:56:25.036Z,8.01
2018-04-01T09:57:25.589Z,8.09
2018-04-01T09:58:26.146Z,8.07
2018-04-01T09:59:26.698Z,8.12
2018-04-01T10:00:27.253Z,8.13
2018-04-01T10:01:27.802Z,8.16
2018-04-01T10:02:28.355Z,8.15
2018-04-01T10:03:28.905Z,8.28
2018-04-01T10:04:29.464Z,8.25
2018-04-01T10:05:30.016Z,8.28
2018-04-01T10:06:30.563Z,8.13
2018-04-01T10:07:31.116Z,8.19
2018-04-01T10:08:31.668Z,8.19
2018-04-01T10:09:32.218Z,8.27
2018-04-01T10:10:32.765Z,8.28
2018-04-01T10:11:33.316Z,8.28
2018-04-01T10:12:33.866Z,8.38
2018-04-01T10:13:34.418Z,8.27
2018-04-01T10:14:34.969Z,8.28
2018-04-01T10:15:35.516Z,8.35
2018-04-01T10:16:36.072Z,8.25
2018-04-01T10:17:36.622Z,8.46
2018-04-01T10:18:37.178Z,8.55
2018-04-01T10:19:37.736Z,8.52
2018-04-01T10:20:38.281Z,8.53
2018-04-01T10:21:38.830Z,8.67
2018-04-01T10:22:39.377Z,8.64
2018-04-01T10:23:39.933Z,8.66
2018-04-01T10:24:40.489Z,8.66
2018-04-01T10:25:41.036Z,8.64
2018-04-01T10:26:41.622Z,8.67
2018-04-01T10:27:42.139Z,8.71
2018-04-01T10:28:42.689Z,8.68
2018-04-01T10:29:43.237Z,8.67
2018-04-01T10:30:43.787Z,8.70
2018-04-01T10:31:44.335Z,8.76
2018-04-01T10:32:44.882Z,8.78
2018-04-01T10:33:45.429Z,8.86
2018-04-01T10:34:45.983Z,8.93
2018-04-01T10:35:46.539Z,9.00
2018-04-01T10:36:47.089Z,8.86
2018-04-01T10:37:47.637Z,9.00
2018-04-01T10:38:48.191Z,8.98
2018-04-01T10:39:48.746Z,8.96
2018-04-01T10:40:49.295Z,8.95
2018-04-01T10:41:49.842Z,8.86
2018-04-01T10:42:50.396Z,8.78
2018-04-01T10:43:50.942Z,8.89
2018-04-01T10:44:51.495Z,8.95
2018-04-01T10:45:52.050Z,8.84
2018-04-01T10:46:52.601Z,8.84
2018-04-01T10:47:53.151Z,8.77
2018-04-01T10:48:53.699Z,8.68
2018-04-01T10:49:54.253Z,8.67
2018-04-01T10:50:54.824Z,8.76
2018-04-01T10:51:55.359Z,8.77
2018-04-01T10:52:55.910Z,8.67
2018-04-01T10:53:56.460Z,8.63
2018-04-01T10:54:57.057Z,8.63
2018-04-01T10:55:57.561Z,8.67
2018-04-01T10:56:58.110Z,8.52
2018-04-01T10:57:58.660Z,8.50
2018-04-01T10:58:59.205Z,8.45
2018-04-01T10:59:59.756Z,8.41
2018-04-01T11:01:00.304Z,8.49
2018-04-01T11:02:00.849Z,8.49
2018-04-01T11:03:01.394Z,8.45
2018-04-01T11:04:01.950Z,8.50
2018-04-01T11:05:02.501Z,8.43
2018-04-01T11:06:03.051Z,8.35
2018-04-01T11:07:03.601Z,8.37
2018-04-01T11:08:04.147Z,8.41
2018-04-01T11:09:04.700Z,8.34
2018-04-01T11:10:05.250Z,8.23
2018-04-01T11:11:05.795Z,8.13
2018-04-01T11:12:06.344Z,8.20
2018-04-01T11:13:06.896Z,8.25
2018-04-01T11:14:07.448Z,8.28
2018-04-01T11:15:07.993Z,8.25
2018-04-01T11:16:08.542Z,8.17
2018-04-01T11:17:09.094Z,8.16
2018-04-01T11:18:09.664Z,8.20
2018-04-01T11:19:10.195Z,8.07
2018-04-01T11:20:10.746Z,8.17
2018-04-01T11:21:11.296Z,8.06
2018-04-01T11:22:11.847Z,8.09
2018-04-01T11:23:12.392Z,8.19
2018-04-01T11:24:12.947Z,8.10
2018-04-01T11:25:13.499Z,8.06
2018-04-01T11:26:14.044Z,8.15
2018-04-01T11:27:14.590Z,8.06
2018-04-01T11:28:15.137Z,8.07
2018-04-01T11:29:15.683Z,8.06
2018-04-01T11:30:16.234Z,8.10
2018-04-01T11:31:16.815Z,7.98
2018-04-01T11:32:17.326Z,8.04
2018-04-01T11:33:17.881Z,8.02
2018-04-01T11:34:18.430Z,8.07
2018-04-01T11:35:18.976Z,8.01
2018-04-01T11:36:19.525Z,8.10
2018-04-01T11:37:20.081Z,8.10
2018-04-01T11:38:20.625Z,8.12
2018-04-01T11:39:21.176Z,8.10
2018-04-01T11:40:21.723Z,8.20
2018-04-01T11:41:22.272Z,8.16
2018-04-01T11:42:22.825Z,8.13
2018-04-01T11:43:23.371Z,8.13
2018-04-01T11:44:23.925Z,8.07
2018-04-01T11:45:24.470Z,8.12
2018-04-01T11:46:25.014Z,8.19
2018-04-01T11:47:25.561Z,8.16
2018-04-01T11:48:26.111Z,8.17
2018-04-01T11:49:26.665Z,8.23
2018-04-01T11:50:27.216Z,8.13
2018-04-01T11:51:27.767Z,8.17
2018-04-01T11:52:28.319Z,8.20
2018-04-01T11:53:28.877Z,8.20
2018-04-01T11:54:29.427Z,8.23
2018-04-01T11:55:29.975Z,8.25
2018-04-01T11:56:30.523Z,8.30
2018-04-01T11:57:31.079Z,8.30
2018-04-01T11:58:31.629Z,8.28
2018-04-01T11:59:32.176Z,8.35
2018-04-01T12:00:32.727Z,8.45
2018-04-01T12:01:33.278Z,8.50
2018-04-01T12:02:33.820Z,8.67
2018-04-01T12:03:34.379Z,8.77
2018-04-01T12:04:34.932Z,8.78
2018-04-01T12:05:35.483Z,8.93
2018-04-01T12:06:36.032Z,8.95
2018-04-01T12:07:36.589Z,8.98
2018-04-01T12:08:37.142Z,9.11
2018-04-01T12:09:37.722Z,9.25
2018-04-01T12:10:38.245Z,9.35
2018-04-01T12:11:38.810Z,9.50
2018-04-01T12:12:39.346Z,9.48
2018-04-01T12:13:39.902Z,9.47
2018-04-01T12:14:40.459Z,9.53
2018-04-01T12:15:41.011Z,9.65
2018-04-01T12:16:41.568Z,9.71
2018-04-01T12:17:42.121Z,9.62
2018-04-01T12:18:42.673Z,9.66
2018-04-01T12:19:43.222Z,9.76
2018-04-01T12:20:43.779Z,9.86
2018-04-01T12:21:44.324Z,9.84
2018-04-01T12:22:44.876Z,9.99
2018-04-01T12:23:45.429Z,10.20
2018-04-01T12:24:45.982Z,10.35
2018-04-01T12:25:46.550Z,10.41
2018-04-01T12:26:47.106Z,10.64
2018-04-01T12:27:47.656Z,10.78
2018-04-01T12:28:48.212Z,10.79
2018-04-01T12:29:48.773Z,10.91
2018-04-01T12:30:49.334Z,10.90
2018-04-01T12:31:49.887Z,11.01
2018-04-01T12:32:50.446Z,10.99
2018-04-01T12:33:51.011Z,10.78
2018-04-01T12:34:51.551Z,10.72
2018-04-01T12:35:52.102Z,10.49
2018-04-01T12:36:52.652Z,10.49
2018-04-01T12:37:53.207Z,10.47
2018-04-01T12:38:53.792Z,10.35
2018-04-01T12:39:54.310Z,10.14
2018-04-01T12:40:54.855Z,9.99
2018-04-01T12:41:55.404Z,9.86
2018-04-01T12:42:55.952Z,9.74
2018-04-01T12:43:56.508Z,9.71
2018-04-01T12:44:57.060Z,9.65
2018-04-01T12:45:57.617Z,9.53
2018-04-01T12:46:58.168Z,9.61
2018-04-01T12:47:58.732Z,9.66
2018-04-01T12:48:59.264Z,9.63
2018-04-01T12:49:59.821Z,9.65
2018-04-01T12:51:00.364Z,9.71
2018-04-01T12:52:00.923Z,9.83
2018-04-01T12:53:01.476Z,9.91
2018-04-01T12:54:02.022Z,9.94
2018-04-01T12:55:02.580Z,10.09
2018-04-01T12:56:03.135Z,10.32
2018-04-01T12:57:03.692Z,10.57
2018-04-01T12:58:04.253Z,10.90
2018-04-01T12:59:04.806Z,11.19
2018-04-01T13:00:05.364Z,11.29
2018-04-01T13:01:05.919Z,11.16
2018-04-01T13:02:06.474Z,11.07
2018-04-01T13:03:07.038Z,11.03
2018-04-01T13:04:07.588Z,11.00
2018-04-01T13:05:08.138Z,10.79
2018-04-01T13:06:08.696Z,10.60
2018-04-01T13:07:09.251Z,10.47
2018-04-01T13:08:09.814Z,10.29
2018-04-01T13:09:10.361Z,10.19
2018-04-01T13:10:10.922Z,10.05
2018-04-01T13:11:11.472Z,9.87
2018-04-01T13:12:12.020Z,9.87
2018-04-01T13:13:12.570Z,9.69
2018-04-01T13:14:13.118Z,9.69
2018-04-01T13:15:13.672Z,9.65
2018-04-01T13:16:14.223Z,9.66
2018-04-01T13:17:14.771Z,9.65
2018-04-01T13:18:15.328Z,9.69
2018-04-01T13:19:15.877Z,9.65
2018-04-01T13:20:16.434Z,9.47
2018-04-01T13:21:16.990Z,9.48
2018-04-01T13:22:17.541Z,9.45
2018-04-01T13:23:18.106Z,9.50
2018-04-01T13:24:18.642Z,9.53
2018-04-01T13:25:19.191Z,9.56